HTKJ

Kilimanjaro International Airport

Airport
ICAO code
HTKJ
IATA Code
JRO
Summary
ICAO Region
AFI
ICAO Territory
Location

Boma Ngombe, Kilimanjaro Region

Serving
Arusha
Elevation
2932 ft
Coordinates
3° 25' 46" S , 37° 4' 28" E
KCC
Cwb
Metar
Observation
HTKJ 152100Z 06008KT 9999 BKN024 21/15 Q1019 NOSIG
Station
Kilimanjaro Airport
Date/Time
2022-08-15 21:00:00
Wind direction
60°
Wind speed
08 kts
Lowest cloud amount
broken clouds
Temperature
21°C
Dew point
15°C
Humidity
68%
QNH
1019 hPa
Weather condition
n/a

Kilimanjaro International Airport (KIA) (IATA: JRO, ICAO: HTKJ) is an international airport in northern Tanzania that serves the cities of Arusha and Moshi.

Climatology

Subtropical highland climate (Köppen climate classification Cwb)

Runways

Designator Length Width Surface Rops
9/27 3607 45 ASP Yes/Yes

Airport map

Aerial View

SKYbrary Partners:

Safety knowledge contributed by: